sensor_id;sensor_type;location;lat;lon;timestamp;pressure;altitude;pressure_sealevel;temperature;humidity
47104;BME280;32853;52.164;5.400;2023-09-18T00:01:42;100471.28;;;20.60;100.00
47104;BME280;32853;52.164;5.400;2023-09-18T00:04:09;100580.53;;;21.38;100.00
47104;BME280;32853;52.164;5.400;2023-09-18T00:06:36;100483.28;;;20.85;100.00
47104;BME280;32853;52.164;5.400;2023-09-18T00:09:09;100510.63;;;21.07;100.00
47104;BME280;32853;52.164;5.400;2023-09-18T00:11:46;100550.19;;;21.40;100.00
47104;BME280;32853;52.164;5.400;2023-09-18T00:14:12;100474.88;;;20.90;100.00
47104;BME280;32853;52.164;5.400;2023-09-18T00:16:39;100390.44;;;20.53;100.00
47104;BME280;32853;52.164;5.400;2023-09-18T00:19:09;100540.66;;;21.48;100.00
47104;BME280;32853;52.164;5.400;2023-09-18T00:21:36;100451.09;;;20.88;100.00
47104;BME280;32853;52.164;5.400;2023-09-18T00:24:06;100351.59;;;20.52;100.00
47104;BME280;32853;52.164;5.400;2023-09-18T00:26:33;100421.56;;;20.82;100.00
47104;BME280;32853;52.164;5.400;2023-09-18T00:28:59;100514.88;;;21.48;100.00
47104;BME280;32853;52.164;5.400;2023-09-18T00:31:33;100527.38;;;21.57;100.00
47104;BME280;32853;52.164;5.400;2023-09-18T00:34:09;100506.50;;;21.53;100.00
47104;BME280;32853;52.164;5.400;2023-09-18T00:36:34;100249.53;;;19.95;100.00
47104;BME280;32853;52.164;5.400;2023-09-18T00:39:04;100489.41;;;21.45;100.00
47104;BME280;32853;52.164;5.400;2023-09-18T00:41:29;100406.75;;;20.99;100.00
47104;BME280;32853;52.164;5.400;2023-09-18T00:43:57;100401.97;;;20.93;100.00
47104;BME280;32853;52.164;5.400;2023-09-18T00:46:24;100302.44;;;20.37;100.00
47104;BME280;32853;52.164;5.400;2023-09-18T00:48:50;100499.06;;;21.46;100.00
47104;BME280;32853;52.164;5.400;2023-09-18T00:51:24;100363.06;;;20.72;100.00
47104;BME280;32853;52.164;5.400;2023-09-18T00:53:50;100311.16;;;20.58;100.00
47104;BME280;32853;52.164;5.400;2023-09-18T00:56:18;100471.34;;;21.49;100.00
47104;BME280;32853;52.164;5.400;2023-09-18T00:58:50;100438.72;;;21.37;100.00
47104;BME280;32853;52.164;5.400;2023-09-18T01:01:19;100460.13;;;21.45;100.00
47104;BME280;32853;52.164;5.400;2023-09-18T01:03:52;100446.13;;;21.43;100.00
47104;BME280;32853;52.164;5.400;2023-09-18T01:06:24;100460.97;;;21.46;100.00
47104;BME280;32853;52.164;5.400;2023-09-18T01:08:53;100361.72;;;20.97;100.00
47104;BME280;32853;52.164;5.400;2023-09-18T01:11:29;100428.66;;;21.41;100.00
47104;BME280;32853;52.164;5.400;2023-09-18T01:14:12;100427.91;;;21.39;100.00
47104;BME280;32853;52.164;5.400;2023-09-18T01:17:09;100416.44;;;21.38;100.00
47104;BME280;32853;52.164;5.400;2023-09-18T01:19:47;100420.66;;;21.31;100.00
47104;BME280;32853;52.164;5.400;2023-09-18T01:22:14;100274.41;;;20.54;100.00
47104;BME280;32853;52.164;5.400;2023-09-18T01:24:45;100269.94;;;20.74;100.00
47104;BME280;32853;52.164;5.400;2023-09-18T01:27:15;100300.56;;;20.97;100.00
47104;BME280;32853;52.164;5.400;2023-09-18T01:29:53;100095.59;;;19.76;100.00
47104;BME280;32853;52.164;5.400;2023-09-18T01:32:19;100394.31;;;21.48;100.00
47104;BME280;32853;52.164;5.400;2023-09-18T01:35:08;100354.84;;;21.43;100.00
47104;BME280;32853;52.164;5.400;2023-09-18T01:37:36;100261.69;;;20.67;100.00
47104;BME280;32853;52.164;5.400;2023-09-18T01:40:04;100219.84;;;20.40;100.00
47104;BME280;32853;52.164;5.400;2023-09-18T01:42:40;100277.19;;;20.91;100.00
47104;BME280;32853;52.164;5.400;2023-09-18T01:45:07;100205.72;;;20.49;100.00
47104;BME280;32853;52.164;5.400;2023-09-18T01:47:33;100306.44;;;21.10;100.00
47104;BME280;32853;52.164;5.400;2023-09-18T01:50:03;100245.03;;;20.84;100.00
47104;BME280;32853;52.164;5.400;2023-09-18T01:52:30;100353.41;;;21.49;100.00
47104;BME280;32853;52.164;5.400;2023-09-18T01:55:03;100354.25;;;21.49;100.00
47104;BME280;32853;52.164;5.400;2023-09-18T01:57:29;100340.13;;;21.39;100.00
47104;BME280;32853;52.164;5.400;2023-09-18T01:59:55;100345.88;;;21.44;100.00
47104;BME280;32853;52.164;5.400;2023-09-18T02:02:27;100297.75;;;21.18;100.00
47104;BME280;32853;52.164;5.400;2023-09-18T02:05:07;100349.94;;;21.48;100.00
47104;BME280;32853;52.164;5.400;2023-09-18T02:07:42;100287.66;;;21.12;100.00
47104;BME280;32853;52.164;5.400;2023-09-18T02:10:09;100072.81;;;19.73;100.00
47104;BME280;32853;52.164;5.400;2023-09-18T02:12:37;100290.34;;;21.02;100.00
47104;BME280;32853;52.164;5.400;2023-09-18T02:15:18;100328.25;;;21.14;100.00
47104;BME280;32853;52.164;5.400;2023-09-18T02:17:43;100248.69;;;20.74;100.00
47104;BME280;32853;52.164;5.400;2023-09-18T02:20:20;100368.16;;;21.43;100.00
47104;BME280;32853;52.164;5.400;2023-09-18T02:22:46;100270.78;;;20.84;100.00
47104;BME280;32853;52.164;5.400;2023-09-18T02:25:14;100228.13;;;20.56;100.00
47104;BME280;32853;52.164;5.400;2023-09-18T02:27:47;100274.81;;;20.78;100.00
47104;BME280;32853;52.164;5.400;2023-09-18T02:30:37;100357.09;;;21.38;100.00
47104;BME280;32853;52.164;5.400;2023-09-18T02:33:10;100352.59;;;21.38;100.00
47104;BME280;32853;52.164;5.400;2023-09-18T02:35:35;100196.94;;;20.58;100.00
47104;BME280;32853;52.164;5.400;2023-09-18T02:38:01;100235.50;;;20.92;100.00
47104;BME280;32853;52.164;5.400;2023-09-18T02:40:28;100258.13;;;21.05;100.00
47104;BME280;32853;52.164;5.400;2023-09-18T02:42:54;100305.69;;;21.37;100.00
47104;BME280;32853;52.164;5.400;2023-09-18T02:45:34;100302.72;;;21.50;100.00
47104;BME280;32853;52.164;5.400;2023-09-18T02:48:06;100298.69;;;21.46;100.00
47104;BME280;32853;52.164;5.400;2023-09-18T02:50:35;100214.66;;;20.87;100.00
47104;BME280;32853;52.164;5.400;2023-09-18T02:53:01;100119.88;;;20.39;100.00
47104;BME280;32853;52.164;5.400;2023-09-18T02:58:27;100202.09;;;20.79;100.00
47104;BME280;32853;52.164;5.400;2023-09-18T03:01:01;100278.69;;;21.42;100.00
47104;BME280;32853;52.164;5.400;2023-09-18T03:03:37;100270.41;;;21.45;100.00
47104;BME280;32853;52.164;5.400;2023-09-18T03:06:09;100251.47;;;21.48;100.00
47104;BME280;32853;52.164;5.400;2023-09-18T03:08:38;100224.09;;;21.28;100.00
47104;BME280;32853;52.164;5.400;2023-09-18T03:11:11;100090.53;;;20.50;100.00
47104;BME280;32853;52.164;5.400;2023-09-18T03:13:37;100161.63;;;20.95;100.00
47104;BME280;32853;52.164;5.400;2023-09-18T03:16:10;100220.25;;;21.50;100.00
47104;BME280;32853;52.164;5.400;2023-09-18T03:18:36;100154.88;;;21.10;100.00
47104;BME280;32853;52.164;5.400;2023-09-18T03:21:06;100060.44;;;20.59;100.00
47104;BME280;32853;52.164;5.400;2023-09-18T03:23:31;100053.75;;;20.55;100.00
47104;BME280;32853;52.164;5.400;2023-09-18T03:26:04;100223.00;;;21.58;100.00
47104;BME280;32853;52.164;5.400;2023-09-18T03:28:30;100129.56;;;21.06;100.00
47104;BME280;32853;52.164;5.400;2023-09-18T03:30:58;100223.31;;;21.55;100.00
47104;BME280;32853;52.164;5.400;2023-09-18T03:33:31;100176.19;;;21.38;100.00
47104;BME280;32853;52.164;5.400;2023-09-18T03:35:56;100115.41;;;21.06;100.00
47104;BME280;32853;52.164;5.400;2023-09-18T03:38:25;100164.63;;;21.29;100.00
47104;BME280;32853;52.164;5.400;2023-09-18T03:40:51;100220.81;;;21.54;100.00
47104;BME280;32853;52.164;5.400;2023-09-18T03:43:17;100066.56;;;20.70;100.00
47104;BME280;32853;52.164;5.400;2023-09-18T03:46:02;100105.25;;;20.92;100.00
47104;BME280;32853;52.164;5.400;2023-09-18T03:48:27;100079.88;;;20.60;100.00
47104;BME280;32853;52.164;5.400;2023-09-18T03:51:05;100075.69;;;20.57;100.00
47104;BME280;32853;52.164;5.400;2023-09-18T03:53:38;100230.75;;;21.52;100.00
47104;BME280;32853;52.164;5.400;2023-09-18T03:56:14;100225.47;;;21.42;100.00
47104;BME280;32853;52.164;5.400;2023-09-18T03:58:40;100208.38;;;21.44;100.00
47104;BME280;32853;52.164;5.400;2023-09-18T04:01:07;100113.78;;;20.95;100.00
47104;BME280;32853;52.164;5.400;2023-09-18T04:03:33;100079.19;;;20.68;100.00
47104;BME280;32853;52.164;5.400;2023-09-18T04:06:08;100126.38;;;20.93;100.00
47104;BME280;32853;52.164;5.400;2023-09-18T04:08:35;99883.63;;;19.63;100.00
47104;BME280;32853;52.164;5.400;2023-09-18T04:11:01;100091.44;;;20.78;100.00
47104;BME280;32853;52.164;5.400;2023-09-18T04:13:27;99908.88;;;19.77;100.00
47104;BME280;32853;52.164;5.400;2023-09-18T04:16:08;100190.69;;;21.53;100.00
47104;BME280;32853;52.164;5.400;2023-09-18T04:18:49;99998.72;;;20.28;100.00
47104;BME280;32853;52.164;5.400;2023-09-18T04:21:15;100182.47;;;21.46;100.00
47104;BME280;32853;52.164;5.400;2023-09-18T04:23:48;100126.41;;;21.21;100.00
47104;BME280;32853;52.164;5.400;2023-09-18T04:26:13;100123.59;;;21.22;100.00
47104;BME280;32853;52.164;5.400;2023-09-18T04:28:41;100162.44;;;21.52;100.00
47104;BME280;32853;52.164;5.400;2023-09-18T04:31:07;100173.16;;;21.60;100.00
47104;BME280;32853;52.164;5.400;2023-09-18T04:33:36;99912.25;;;20.16;100.00
47104;BME280;32853;52.164;5.400;2023-09-18T04:36:01;100157.44;;;21.67;100.00
47104;BME280;32853;52.164;5.400;2023-09-18T04:38:26;100161.31;;;21.72;100.00
47104;BME280;32853;52.164;5.400;2023-09-18T04:40:59;100141.41;;;21.77;100.00
47104;BME280;32853;52.164;5.400;2023-09-18T04:43:24;100065.38;;;21.29;100.00
47104;BME280;32853;52.164;5.400;2023-09-18T04:45:53;100092.53;;;21.50;100.00
47104;BME280;32853;52.164;5.400;2023-09-18T04:48:18;99930.09;;;20.43;100.00
47104;BME280;32853;52.164;5.400;2023-09-18T04:50:43;100028.03;;;21.21;100.00
47104;BME280;32853;52.164;5.400;2023-09-18T04:53:09;100036.69;;;21.23;100.00
47104;BME280;32853;52.164;5.400;2023-09-18T04:55:34;100033.59;;;21.27;100.00
47104;BME280;32853;52.164;5.400;2023-09-18T04:58:00;100023.53;;;21.21;100.00
47104;BME280;32853;52.164;5.400;2023-09-18T05:00:25;100128.69;;;21.70;100.00
47104;BME280;32853;52.164;5.400;2023-09-18T05:02:59;100164.22;;;21.79;100.00
47104;BME280;32853;52.164;5.400;2023-09-18T05:05:32;100188.13;;;21.61;100.00
47104;BME280;32853;52.164;5.400;2023-09-18T05:08:01;100006.28;;;20.70;100.00
47104;BME280;32853;52.164;5.400;2023-09-18T05:10:28;100066.38;;;20.91;100.00
47104;BME280;32853;52.164;5.400;2023-09-18T05:12:57;100100.53;;;20.85;100.00
47104;BME280;32853;52.164;5.400;2023-09-18T05:15:25;100058.38;;;20.53;100.00
47104;BME280;32853;52.164;5.400;2023-09-18T05:17:52;100167.59;;;21.54;100.00
47104;BME280;32853;52.164;5.400;2023-09-18T05:20:20;100073.34;;;20.92;100.00
47104;BME280;32853;52.164;5.400;2023-09-18T05:22:49;100138.22;;;21.45;100.00
47104;BME280;32853;52.164;5.400;2023-09-18T05:25:15;100069.78;;;21.10;100.00
47104;BME280;32853;52.164;5.400;2023-09-18T05:27:45;99998.13;;;20.54;100.00
47104;BME280;32853;52.164;5.400;2023-09-18T05:30:28;100147.81;;;21.56;100.00
47104;BME280;32853;52.164;5.400;2023-09-18T05:33:05;100097.84;;;21.32;100.00
47104;BME280;32853;52.164;5.400;2023-09-18T05:35:44;100150.28;;;21.67;100.00
47104;BME280;32853;52.164;5.400;2023-09-18T05:38:11;99985.84;;;20.53;100.00
47104;BME280;32853;52.164;5.400;2023-09-18T05:40:38;99947.72;;;20.25;100.00
47104;BME280;32853;52.164;5.400;2023-09-18T05:43:04;100055.97;;;21.07;100.00
47104;BME280;32853;52.164;5.400;2023-09-18T05:45:31;99925.06;;;20.30;100.00
47104;BME280;32853;52.164;5.400;2023-09-18T05:47:59;100003.19;;;20.84;100.00
47104;BME280;32853;52.164;5.400;2023-09-18T05:50:32;100067.91;;;21.21;100.00
47104;BME280;32853;52.164;5.400;2023-09-18T05:52:58;100187.59;;;21.85;100.00
47104;BME280;32853;52.164;5.400;2023-09-18T05:55:31;100154.66;;;21.59;100.00
47104;BME280;32853;52.164;5.400;2023-09-18T05:57:56;100164.69;;;21.74;100.00
47104;BME280;32853;52.164;5.400;2023-09-18T06:00:23;100007.34;;;20.87;100.00
47104;BME280;32853;52.164;5.400;2023-09-18T06:02:49;100029.59;;;20.86;100.00
47104;BME280;32853;52.164;5.400;2023-09-18T06:05:18;99914.19;;;20.24;100.00
47104;BME280;32853;52.164;5.400;2023-09-18T06:07:48;100163.06;;;21.82;100.00
47104;BME280;32853;52.164;5.400;2023-09-18T06:10:17;100190.84;;;21.79;100.00
47104;BME280;32853;52.164;5.400;2023-09-18T06:12:44;99898.56;;;20.21;100.00
47104;BME280;32853;52.164;5.400;2023-09-18T06:15:11;100111.09;;;21.42;100.00
47104;BME280;32853;52.164;5.400;2023-09-18T06:17:46;99986.25;;;20.48;100.00
47104;BME280;32853;52.164;5.400;2023-09-18T06:20:12;100191.81;;;21.78;100.00
47104;BME280;32853;52.164;5.400;2023-09-18T06:22:41;100145.06;;;21.48;100.00
47104;BME280;32853;52.164;5.400;2023-09-18T06:25:30;100164.91;;;21.81;100.00
47104;BME280;32853;52.164;5.400;2023-09-18T06:27:57;100013.94;;;20.83;100.00
47104;BME280;32853;52.164;5.400;2023-09-18T06:30:22;100174.72;;;21.81;100.00
47104;BME280;32853;52.164;5.400;2023-09-18T06:32:50;99914.47;;;20.30;100.00
47104;BME280;32853;52.164;5.400;2023-09-18T06:35:36;99995.09;;;20.76;100.00
47104;BME280;32853;52.164;5.400;2023-09-18T06:38:02;100166.63;;;21.72;100.00
47104;BME280;32853;52.164;5.400;2023-09-18T06:40:27;100171.28;;;21.70;100.00
47104;BME280;32853;52.164;5.400;2023-09-18T06:43:25;100170.69;;;21.77;100.00
47104;BME280;32853;52.164;5.400;2023-09-18T06:45:50;100012.41;;;20.80;100.00
47104;BME280;32853;52.164;5.400;2023-09-18T06:48:18;100109.41;;;21.41;100.00
47104;BME280;32853;52.164;5.400;2023-09-18T06:50:48;100189.16;;;21.78;100.00
47104;BME280;32853;52.164;5.400;2023-09-18T06:55:53;100177.88;;;21.66;100.00
47104;BME280;32853;52.164;5.400;2023-09-18T06:58:26;100170.28;;;21.71;100.00
47104;BME280;32853;52.164;5.400;2023-09-18T07:00:51;100157.78;;;21.54;100.00
47104;BME280;32853;52.164;5.400;2023-09-18T07:03:16;100186.25;;;21.71;100.00
47104;BME280;32853;52.164;5.400;2023-09-18T07:05:43;100097.22;;;21.38;100.00
47104;BME280;32853;52.164;5.400;2023-09-18T07:08:08;100123.09;;;21.46;100.00
47104;BME280;32853;52.164;5.400;2023-09-18T07:10:40;99989.22;;;20.73;100.00
47104;BME280;32853;52.164;5.400;2023-09-18T07:13:07;100179.16;;;21.90;100.00
47104;BME280;32853;52.164;5.400;2023-09-18T07:15:48;100130.03;;;21.57;100.00
47104;BME280;32853;52.164;5.400;2023-09-18T07:18:13;100128.69;;;21.53;100.00
47104;BME280;32853;52.164;5.400;2023-09-18T07:20:46;100040.38;;;21.12;100.00
47104;BME280;32853;52.164;5.400;2023-09-18T07:23:12;99941.41;;;20.45;100.00
47104;BME280;32853;52.164;5.400;2023-09-18T07:25:37;100196.19;;;22.07;100.00
47104;BME280;32853;52.164;5.400;2023-09-18T07:28:08;100035.16;;;21.20;100.00
47104;BME280;32853;52.164;5.400;2023-09-18T07:30:35;100174.09;;;22.14;100.00
47104;BME280;32853;52.164;5.400;2023-09-18T07:33:08;100181.59;;;22.01;100.00
47104;BME280;32853;52.164;5.400;2023-09-18T07:35:33;100181.44;;;22.02;100.00
47104;BME280;32853;52.164;5.400;2023-09-18T07:37:59;100018.06;;;21.23;100.00
47104;BME280;32853;52.164;5.400;2023-09-18T07:40:25;100167.63;;;22.17;100.00
47104;BME280;32853;52.164;5.400;2023-09-18T07:42:52;100094.09;;;21.53;100.00
47104;BME280;32853;52.164;5.400;2023-09-18T07:45:20;100185.22;;;22.10;100.00
47104;BME280;32853;52.164;5.400;2023-09-18T07:47:47;100178.16;;;22.18;100.00
47104;BME280;32853;52.164;5.400;2023-09-18T07:50:17;100149.50;;;22.02;100.00
47104;BME280;32853;52.164;5.400;2023-09-18T07:52:47;100111.66;;;21.81;100.00
47104;BME280;32853;52.164;5.400;2023-09-18T07:55:19;100191.03;;;21.95;100.00
47104;BME280;32853;52.164;5.400;2023-09-18T07:57:49;100181.22;;;21.96;100.00
47104;BME280;32853;52.164;5.400;2023-09-18T08:00:17;100151.84;;;21.88;100.00
47104;BME280;32853;52.164;5.400;2023-09-18T08:02:49;100099.34;;;21.62;100.00
47104;BME280;32853;52.164;5.400;2023-09-18T08:05:16;100190.63;;;22.18;100.00
47104;BME280;32853;52.164;5.400;2023-09-18T08:07:52;100063.72;;;21.18;100.00
47104;BME280;32853;52.164;5.400;2023-09-18T08:10:40;100200.97;;;22.21;100.00
47104;BME280;32853;52.164;5.400;2023-09-18T08:13:06;100135.34;;;21.84;100.00
47104;BME280;32853;52.164;5.400;2023-09-18T08:15:38;100149.88;;;21.90;100.00
47104;BME280;32853;52.164;5.400;2023-09-18T08:18:03;100107.09;;;21.56;100.00
47104;BME280;32853;52.164;5.400;2023-09-18T08:20:52;100196.34;;;22.23;100.00
47104;BME280;32853;52.164;5.400;2023-09-18T08:23:21;100189.56;;;22.11;100.00
47104;BME280;32853;52.164;5.400;2023-09-18T08:25:47;100208.22;;;22.28;100.00
47104;BME280;32853;52.164;5.400;2023-09-18T08:28:12;100212.38;;;22.13;100.00
47104;BME280;32853;52.164;5.400;2023-09-18T08:30:40;100135.78;;;21.62;100.00
47104;BME280;32853;52.164;5.400;2023-09-18T08:33:20;100222.72;;;22.16;100.00
47104;BME280;32853;52.164;5.400;2023-09-18T08:35:50;100100.66;;;21.49;100.00
47104;BME280;32853;52.164;5.400;2023-09-18T08:38:16;100220.56;;;22.29;100.00
47104;BME280;32853;52.164;5.400;2023-09-18T08:40:41;100233.56;;;22.32;100.00
47104;BME280;32853;52.164;5.400;2023-09-18T08:43:12;100148.25;;;21.79;100.00
47104;BME280;32853;52.164;5.400;2023-09-18T08:45:46;100066.50;;;20.89;100.00
47104;BME280;32853;52.164;5.400;2023-09-18T08:48:14;100205.19;;;21.96;100.00
47104;BME280;32853;52.164;5.400;2023-09-18T08:50:41;100136.88;;;21.59;100.00
47104;BME280;32853;52.164;5.400;2023-09-18T08:53:07;100130.72;;;21.59;100.00
47104;BME280;32853;52.164;5.400;2023-09-18T08:55:33;100228.38;;;22.31;100.00
47104;BME280;32853;52.164;5.400;2023-09-18T08:57:59;100175.91;;;21.96;100.00
47104;BME280;32853;52.164;5.400;2023-09-18T09:00:26;100137.19;;;21.56;100.00
47104;BME280;32853;52.164;5.400;2023-09-18T09:02:51;100252.41;;;22.39;100.00
47104;BME280;32853;52.164;5.400;2023-09-18T09:05:28;100274.66;;;22.48;100.00
47104;BME280;32853;52.164;5.400;2023-09-18T09:07:57;100230.38;;;22.29;100.00
47104;BME280;32853;52.164;5.400;2023-09-18T09:10:23;100242.34;;;22.15;100.00
47104;BME280;32853;52.164;5.400;2023-09-18T09:12:56;100285.06;;;22.23;100.00
47104;BME280;32853;52.164;5.400;2023-09-18T09:15:54;100241.84;;;22.29;100.00
47104;BME280;32853;52.164;5.400;2023-09-18T09:18:27;100260.84;;;22.62;100.00
47104;BME280;32853;52.164;5.400;2023-09-18T09:21:00;100248.78;;;22.76;100.00
47104;BME280;32853;52.164;5.400;2023-09-18T09:23:27;100186.66;;;22.22;100.00
47104;BME280;32853;52.164;5.400;2023-09-18T09:26:17;100254.69;;;23.05;100.00
47104;BME280;32853;52.164;5.400;2023-09-18T09:28:44;100041.47;;;21.82;100.00
47104;BME280;32853;52.164;5.400;2023-09-18T09:31:10;100211.31;;;22.95;100.00
47104;BME280;32853;52.164;5.400;2023-09-18T09:33:50;99995.16;;;21.57;100.00
47104;BME280;32853;52.164;5.400;2023-09-18T09:36:32;100270.00;;;23.21;100.00
47104;BME280;32853;52.164;5.400;2023-09-18T09:38:58;100198.91;;;22.68;100.00
47104;BME280;32853;52.164;5.400;2023-09-18T09:41:24;100294.41;;;22.90;100.00
47104;BME280;32853;52.164;5.400;2023-09-18T09:43:58;100275.06;;;22.88;100.00
47104;BME280;32853;52.164;5.400;2023-09-18T09:46:24;100293.50;;;23.00;100.00
47104;BME280;32853;52.164;5.400;2023-09-18T09:49:01;100100.19;;;21.81;100.00
47104;BME280;32853;52.164;5.400;2023-09-18T09:51:28;100027.38;;;21.36;100.00
47104;BME280;32853;52.164;5.400;2023-09-18T09:53:55;100042.66;;;21.07;100.00
47104;BME280;32853;52.164;5.400;2023-09-18T09:59:35;100195.75;;;22.01;100.00
47104;BME280;32853;52.164;5.400;2023-09-18T10:02:16;99948.63;;;20.53;100.00
47104;BME280;32853;52.164;5.400;2023-09-18T10:04:45;100292.72;;;22.72;100.00
47104;BME280;32853;52.164;5.400;2023-09-18T10:07:14;100262.19;;;22.66;100.00
47104;BME280;32853;52.164;5.400;2023-09-18T10:09:42;100154.31;;;21.71;100.00
47104;BME280;32853;52.164;5.400;2023-09-18T10:12:12;100063.22;;;21.42;100.00
47104;BME280;32853;52.164;5.400;2023-09-18T10:14:38;100296.88;;;22.84;100.00
47104;BME280;32853;52.164;5.400;2023-09-18T10:17:11;100194.13;;;22.36;100.00
47104;BME280;32853;52.164;5.400;2023-09-18T10:22:30;100281.97;;;23.17;100.00
47104;BME280;32853;52.164;5.400;2023-09-18T10:25:11;100289.50;;;23.47;100.00
47104;BME280;32853;52.164;5.400;2023-09-18T10:27:39;100281.41;;;23.31;100.00
47104;BME280;32853;52.164;5.400;2023-09-18T10:30:32;100284.06;;;23.31;100.00
47104;BME280;32853;52.164;5.400;2023-09-18T10:32:59;100282.19;;;23.24;100.00
47104;BME280;32853;52.164;5.400;2023-09-18T10:35:26;100309.66;;;23.42;100.00
47104;BME280;32853;52.164;5.400;2023-09-18T10:37:54;100286.19;;;23.28;100.00
47104;BME280;32853;52.164;5.400;2023-09-18T10:40:35;100297.72;;;23.28;100.00
47104;BME280;32853;52.164;5.400;2023-09-18T10:43:02;100313.78;;;23.36;100.00
47104;BME280;32853;52.164;5.400;2023-09-18T10:45:32;100323.41;;;23.29;100.00
47104;BME280;32853;52.164;5.400;2023-09-18T10:48:06;100200.56;;;22.69;100.00
47104;BME280;32853;52.164;5.400;2023-09-18T10:50:41;100313.13;;;23.60;100.00
47104;BME280;32853;52.164;5.400;2023-09-18T10:53:08;100205.13;;;22.77;100.00
47104;BME280;32853;52.164;5.400;2023-09-18T10:55:48;100313.22;;;23.51;100.00
47104;BME280;32853;52.164;5.400;2023-09-18T10:58:25;100268.41;;;23.36;100.00
47104;BME280;32853;52.164;5.400;2023-09-18T11:00:51;100232.84;;;23.02;100.00
47104;BME280;32853;52.164;5.400;2023-09-18T11:03:17;100316.34;;;23.64;100.00
47104;BME280;32853;52.164;5.400;2023-09-18T11:09:07;100318.75;;;23.57;100.00
47104;BME280;32853;52.164;5.400;2023-09-18T11:11:34;100069.25;;;22.15;100.00
47104;BME280;32853;52.164;5.400;2023-09-18T11:14:01;100308.88;;;23.75;100.00
47104;BME280;32853;52.164;5.400;2023-09-18T11:21:27;100295.13;;;23.96;100.00
47104;BME280;32853;52.164;5.400;2023-09-18T11:24:04;100294.97;;;23.98;100.00
47104;BME280;32853;52.164;5.400;2023-09-18T11:26:36;100316.94;;;24.18;100.00
47104;BME280;32853;52.164;5.400;2023-09-18T11:29:12;100258.34;;;23.82;100.00
47104;BME280;32853;52.164;5.400;2023-09-18T11:31:49;100113.91;;;22.65;100.00
47104;BME280;32853;52.164;5.400;2023-09-18T11:36:49;100304.31;;;24.02;100.00
47104;BME280;32853;52.164;5.400;2023-09-18T11:39:44;100162.91;;;23.16;100.00
47104;BME280;32853;52.164;5.400;2023-09-18T11:42:20;100188.63;;;23.51;100.00
47104;BME280;32853;52.164;5.400;2023-09-18T11:44:54;100206.88;;;23.64;100.00
47104;BME280;32853;52.164;5.400;2023-09-18T11:47:24;100281.19;;;24.19;100.00
47104;BME280;32853;52.164;5.400;2023-09-18T11:49:51;100212.81;;;23.58;100.00
47104;BME280;32853;52.164;5.400;2023-09-18T11:52:25;100146.63;;;23.27;100.00
47104;BME280;32853;52.164;5.400;2023-09-18T11:54:52;100065.44;;;22.61;100.00
47104;BME280;32853;52.164;5.400;2023-09-18T11:57:21;100283.63;;;23.96;100.00
47104;BME280;32853;52.164;5.400;2023-09-18T11:59:47;100207.75;;;23.46;100.00
47104;BME280;32853;52.164;5.400;2023-09-18T12:02:34;100307.06;;;24.18;100.00
47104;BME280;32853;52.164;5.400;2023-09-18T12:05:28;100301.16;;;23.98;100.00
47104;BME280;32853;52.164;5.400;2023-09-18T12:07:53;100226.50;;;23.55;100.00
47104;BME280;32853;52.164;5.400;2023-09-18T12:10:21;100280.03;;;23.79;100.00
47104;BME280;32853;52.164;5.400;2023-09-18T12:13:08;100305.84;;;24.04;100.00
47104;BME280;32853;52.164;5.400;2023-09-18T12:15:41;100295.31;;;23.95;100.00
47104;BME280;32853;52.164;5.400;2023-09-18T12:18:11;100297.81;;;23.96;100.00
47104;BME280;32853;52.164;5.400;2023-09-18T12:20:49;100296.53;;;24.09;100.00
47104;BME280;32853;52.164;5.400;2023-09-18T12:23:17;100241.31;;;23.83;100.00
47104;BME280;32853;52.164;5.400;2023-09-18T12:25:58;100283.19;;;24.25;100.00
47104;BME280;32853;52.164;5.400;2023-09-18T12:28:27;100236.03;;;23.99;100.00
47104;BME280;32853;52.164;5.400;2023-09-18T12:31:03;100309.31;;;24.31;100.00
47104;BME280;32853;52.164;5.400;2023-09-18T12:33:43;100281.47;;;24.58;100.00
47104;BME280;32853;52.164;5.400;2023-09-18T12:36:09;100263.41;;;24.60;100.00
47104;BME280;32853;52.164;5.400;2023-09-18T12:38:36;100045.88;;;23.13;100.00
47104;BME280;32853;52.164;5.400;2023-09-18T12:41:03;100252.91;;;24.50;100.00
47104;BME280;32853;52.164;5.400;2023-09-18T12:43:41;100129.69;;;23.44;100.00
47104;BME280;32853;52.164;5.400;2023-09-18T12:46:09;100124.78;;;23.24;100.00
47104;BME280;32853;52.164;5.400;2023-09-18T12:48:39;100115.13;;;23.31;100.00
47104;BME280;32853;52.164;5.400;2023-09-18T12:51:15;100254.69;;;24.33;100.00
47104;BME280;32853;52.164;5.400;2023-09-18T12:53:47;100072.63;;;23.37;100.00
47104;BME280;32853;52.164;5.400;2023-09-18T12:56:13;100197.16;;;24.13;100.00
47104;BME280;32853;52.164;5.400;2023-09-18T12:58:44;100112.78;;;23.62;100.00
47104;BME280;32853;52.164;5.400;2023-09-18T13:01:29;100270.47;;;24.61;100.00
47104;BME280;32853;52.164;5.400;2023-09-18T13:04:01;100263.06;;;24.47;100.00
47104;BME280;32853;52.164;5.400;2023-09-18T13:06:31;100191.66;;;24.07;100.00
47104;BME280;32853;52.164;5.400;2023-09-18T13:09:22;100246.19;;;24.46;100.00
47104;BME280;32853;52.164;5.400;2023-09-18T13:11:52;100214.78;;;24.40;100.00
47104;BME280;32853;52.164;5.400;2023-09-18T13:14:18;100230.69;;;24.74;100.00
47104;BME280;32853;52.164;5.400;2023-09-18T13:16:44;100260.25;;;24.97;100.00
47104;BME280;32853;52.164;5.400;2023-09-18T13:19:10;100236.22;;;25.05;100.00
47104;BME280;32853;52.164;5.400;2023-09-18T13:21:35;100152.28;;;24.57;99.62